createdAt,value
2022-10-13T00:00:52.919Z,97744.06
2022-10-13T00:02:55.635Z,97745.75
2022-10-13T00:04:58.254Z,97740.50
2022-10-13T00:07:00.870Z,97741.31
2022-10-13T00:09:04.164Z,97740.44
2022-10-13T00:11:11.728Z,97746.44
2022-10-13T00:13:14.949Z,97746.41
2022-10-13T00:15:19.592Z,97749.97
2022-10-13T00:17:22.191Z,97746.50
2022-10-13T00:19:25.048Z,97756.09
2022-10-13T00:21:28.538Z,97760.66
2022-10-13T00:23:31.083Z,97764.16
2022-10-13T00:25:33.655Z,97763.34
2022-10-13T00:27:36.226Z,97763.50
2022-10-13T00:29:38.818Z,97774.91
2022-10-13T00:31:42.730Z,97771.59
2022-10-13T00:33:45.397Z,97772.53
2022-10-13T00:35:49.562Z,97760.22
2022-10-13T00:37:53.271Z,97766.06
2022-10-13T00:39:55.933Z,97768.75
2022-10-13T00:41:58.943Z,97760.09
2022-10-13T00:44:03.248Z,97754.00
2022-10-13T00:46:06.022Z,97753.22
2022-10-13T00:48:10.283Z,97757.53
2022-10-13T00:50:17.186Z,97754.94
2022-10-13T00:52:21.665Z,97765.38
2022-10-13T00:54:25.765Z,97763.72
2022-10-13T00:56:29.676Z,97768.16
2022-10-13T00:58:33.665Z,97760.31
2022-10-13T01:00:36.666Z,97756.25
2022-10-13T01:02:39.371Z,97753.53
2022-10-13T01:04:46.285Z,97755.97
2022-10-13T01:06:49.723Z,97746.41
2022-10-13T01:08:52.361Z,97751.75
2022-10-13T01:11:02.133Z,97760.91
2022-10-13T01:13:12.978Z,97762.00
2022-10-13T01:15:22.402Z,97760.34
2022-10-13T01:17:34.855Z,97749.97
2022-10-13T01:20:05.653Z,97740.47
2022-10-13T01:22:24.567Z,97744.59
2022-10-13T01:24:43.935Z,97737.56
2022-10-13T01:27:09.173Z,97739.13
2022-10-13T01:29:44.502Z,97741.69
2022-10-13T01:31:53.083Z,97745.00
2022-10-13T01:34:02.639Z,97747.22
2022-10-13T01:36:16.114Z,97729.19
2022-10-13T01:38:34.315Z,97729.22
2022-10-13T01:40:43.889Z,97736.03
2022-10-13T01:42:54.422Z,97730.88
2022-10-13T01:45:03.487Z,97729.13
2022-10-13T01:47:08.288Z,97736.16
2022-10-13T01:49:13.626Z,97730.88
2022-10-13T01:51:20.761Z,97729.00
2022-10-13T01:53:24.370Z,97728.13
2022-10-13T01:55:28.604Z,97728.56
2022-10-13T01:57:33.891Z,97723.50
2022-10-13T01:59:38.503Z,97725.16
2022-10-13T02:01:57.870Z,97720.09
2022-10-13T02:04:13.123Z,97729.06
2022-10-13T02:06:21.864Z,97725.44
2022-10-13T02:08:31.430Z,97723.72
2022-10-13T02:10:41.109Z,97719.16
2022-10-13T02:12:50.269Z,97715.66
2022-10-13T02:14:57.037Z,97719.97
2022-10-13T02:17:04.625Z,97719.16
2022-10-13T02:19:10.137Z,97713.06
2022-10-13T02:21:12.734Z,97715.59
2022-10-13T02:23:17.757Z,97718.16
2022-10-13T02:25:20.391Z,97724.13
2022-10-13T02:27:24.103Z,97717.97
2022-10-13T02:29:27.115Z,97714.38
2022-10-13T02:31:29.718Z,97711.72
2022-10-13T02:33:33.849Z,97713.44
2022-10-13T02:35:36.523Z,97716.88
2022-10-13T02:37:39.109Z,97712.47
2022-10-13T02:39:41.823Z,97718.41
2022-10-13T02:41:47.609Z,97710.59
2022-10-13T02:43:50.176Z,97718.16
2022-10-13T02:45:52.753Z,97705.97
2022-10-13T02:47:55.360Z,97711.09
2022-10-13T02:49:59.291Z,97711.88
2022-10-13T02:52:02.045Z,97711.84
2022-10-13T02:54:04.763Z,97713.53
2022-10-13T02:56:08.016Z,97710.00
2022-10-13T02:58:10.584Z,97708.25
2022-10-13T03:00:14.643Z,97709.94
2022-10-13T03:02:17.900Z,97712.53
2022-10-13T03:04:20.765Z,97709.84
2022-10-13T03:06:24.741Z,97720.25
2022-10-13T03:08:27.456Z,97713.25
2022-10-13T03:10:30.999Z,97716.81
2022-10-13T03:12:33.619Z,97703.75
2022-10-13T03:14:36.595Z,97709.84
2022-10-13T03:16:39.250Z,97710.66
2022-10-13T03:18:41.932Z,97708.06
2022-10-13T03:20:44.861Z,97705.41
2022-10-13T03:22:49.934Z,97701.00
2022-10-13T03:24:52.749Z,97705.34
2022-10-13T03:26:55.392Z,97708.84
2022-10-13T03:28:58.061Z,97708.75
2022-10-13T03:31:02.525Z,97698.31
2022-10-13T03:33:05.740Z,97698.31
2022-10-13T03:35:09.245Z,97701.81
2022-10-13T03:37:11.859Z,97696.50
2022-10-13T03:39:16.243Z,97688.66
2022-10-13T03:41:20.142Z,97684.28
2022-10-13T03:43:23.229Z,97673.84
2022-10-13T03:45:25.844Z,97676.44
2022-10-13T03:47:28.480Z,97665.19
2022-10-13T03:49:31.056Z,97660.88
2022-10-13T03:51:33.817Z,97659.22
2022-10-13T03:53:36.759Z,97662.78
2022-10-13T03:55:40.695Z,97651.44
2022-10-13T03:57:43.281Z,97657.59
2022-10-13T03:59:45.883Z,97661.91
2022-10-13T04:01:48.537Z,97662.88
2022-10-13T04:03:51.641Z,97660.31
2022-10-13T04:05:54.205Z,97670.03
2022-10-13T04:07:56.757Z,97663.13
2022-10-13T04:09:59.381Z,97664.06
2022-10-13T04:12:03.324Z,97663.34
2022-10-13T04:14:05.935Z,97660.84
2022-10-13T04:16:10.466Z,97666.19
2022-10-13T04:18:13.025Z,97667.94
2022-10-13T04:20:15.742Z,97675.06
2022-10-13T04:22:18.866Z,97673.44
2022-10-13T04:24:21.784Z,97671.72
2022-10-13T04:26:25.826Z,97665.72
2022-10-13T04:28:29.834Z,97657.94
2022-10-13T04:30:34.064Z,97654.63
2022-10-13T04:32:36.622Z,97655.56
2022-10-13T04:34:39.185Z,97649.59
2022-10-13T04:36:41.812Z,97652.31
2022-10-13T04:38:44.487Z,97654.34
2022-10-13T04:40:47.058Z,97657.09
2022-10-13T04:42:49.663Z,97663.22
2022-10-13T04:44:55.999Z,97660.72
2022-10-13T04:47:00.688Z,97666.16
2022-10-13T04:49:03.381Z,97661.84
2022-10-13T04:51:08.159Z,97667.13
2022-10-13T04:53:14.206Z,97668.94
2022-10-13T04:55:19.330Z,97668.16
2022-10-13T04:57:21.887Z,97663.00
2022-10-13T04:59:24.477Z,97666.66
2022-10-13T05:01:28.403Z,97666.81
2022-10-13T05:03:31.359Z,97663.31
2022-10-13T05:05:36.712Z,97669.47
2022-10-13T05:07:39.342Z,97673.81
2022-10-13T05:09:42.092Z,97663.44
2022-10-13T05:11:44.860Z,97670.50
2022-10-13T05:13:47.530Z,97665.53
2022-10-13T05:15:50.257Z,97664.78
2022-10-13T05:17:54.171Z,97657.03
2022-10-13T05:19:56.719Z,97657.91
2022-10-13T05:21:59.330Z,97659.00
2022-10-13T05:24:02.432Z,97661.59
2022-10-13T05:26:06.004Z,97662.59
2022-10-13T05:28:10.034Z,97664.22
2022-10-13T05:30:13.541Z,97672.03
2022-10-13T05:32:16.159Z,97675.53
2022-10-13T05:34:20.174Z,97676.34
2022-10-13T05:36:25.062Z,97678.97
2022-10-13T05:38:27.633Z,97669.22
2022-10-13T05:40:30.252Z,97661.31
2022-10-13T05:42:33.227Z,97665.66
2022-10-13T05:44:36.268Z,97664.00
2022-10-13T05:46:38.881Z,97666.66
2022-10-13T05:48:41.461Z,97665.03
2022-10-13T05:50:45.359Z,97668.31
2022-10-13T05:52:48.030Z,97664.84
2022-10-13T05:54:54.041Z,97674.38
2022-10-13T05:57:02.733Z,97673.53
2022-10-13T05:59:08.705Z,97669.16
2022-10-13T06:01:14.269Z,97676.16
2022-10-13T06:03:20.164Z,97672.75
2022-10-13T06:05:25.303Z,97668.34
2022-10-13T06:07:30.594Z,97677.03
2022-10-13T06:09:35.744Z,97670.88
2022-10-13T06:11:38.311Z,97668.28
2022-10-13T06:13:40.934Z,97665.50
2022-10-13T06:15:43.530Z,97667.09
2022-10-13T06:17:46.115Z,97661.81
2022-10-13T06:19:48.714Z,97662.63
2022-10-13T06:21:51.527Z,97660.75
2022-10-13T06:23:55.514Z,97653.66
2022-10-13T06:25:58.104Z,97652.63
2022-10-13T06:28:01.052Z,97659.47
2022-10-13T06:30:03.644Z,97656.91
2022-10-13T06:32:06.572Z,97658.53
2022-10-13T06:34:09.197Z,97658.47
2022-10-13T06:36:12.100Z,97657.34
2022-10-13T06:38:14.721Z,97658.16
2022-10-13T06:40:18.662Z,97657.16
2022-10-13T06:42:21.572Z,97662.25
2022-10-13T06:44:24.541Z,97657.81
2022-10-13T06:46:27.565Z,97660.31
2022-10-13T06:48:30.590Z,97659.44
2022-10-13T06:50:33.557Z,97661.06
2022-10-13T06:52:36.182Z,97647.84
2022-10-13T06:54:38.795Z,97647.72
2022-10-13T06:56:43.093Z,97638.00
2022-10-13T06:58:45.967Z,97644.78
2022-10-13T07:00:48.575Z,97647.34
2022-10-13T07:02:52.784Z,97639.31
2022-10-13T07:04:55.884Z,97636.59
2022-10-13T07:06:58.464Z,97638.19
2022-10-13T07:09:04.046Z,97632.81
2022-10-13T07:11:15.892Z,97635.28
2022-10-13T07:15:24.596Z,97623.69
2022-10-13T07:17:27.645Z,97633.28
2022-10-13T07:19:30.237Z,97639.22
2022-10-13T07:21:32.807Z,97625.16
2022-10-13T07:23:35.444Z,97631.19
2022-10-13T07:25:38.776Z,97628.38
2022-10-13T07:27:42.053Z,97636.97
2022-10-13T07:29:45.966Z,97632.53
2022-10-13T07:31:48.542Z,97628.16
2022-10-13T07:33:52.026Z,97625.47
2022-10-13T07:35:54.582Z,97634.13
2022-10-13T07:37:57.140Z,97621.91
2022-10-13T07:40:00.350Z,97624.50
2022-10-13T07:42:03.137Z,97629.69
2022-10-13T07:44:06.195Z,97633.84
2022-10-13T07:46:12.903Z,97633.81
2022-10-13T07:48:15.807Z,97638.91
2022-10-13T07:50:18.499Z,97642.34
2022-10-13T07:52:21.528Z,97637.94
2022-10-13T07:54:26.597Z,97636.91
2022-10-13T07:56:30.052Z,97639.44
2022-10-13T07:58:33.059Z,97640.19
2022-10-13T08:00:36.264Z,97643.66
2022-10-13T08:02:40.284Z,97636.53
2022-10-13T08:04:42.880Z,97633.00
2022-10-13T08:06:45.470Z,97635.59
2022-10-13T08:08:48.099Z,97638.94
2022-10-13T08:10:50.749Z,97633.50
2022-10-13T08:12:53.346Z,97623.00
2022-10-13T08:14:56.089Z,97628.09
2022-10-13T09:13:19.903Z,97597.53
2022-10-13T09:37:46.269Z,97600.97
2022-10-13T09:40:02.410Z,97588.59
2022-10-13T09:42:23.769Z,97597.09
2022-10-13T09:44:29.875Z,97595.22
2022-10-13T09:46:35.220Z,97591.69
2022-10-13T09:48:42.282Z,97595.94
2022-10-13T09:50:50.184Z,97594.69
2022-10-13T09:52:55.015Z,97595.47
2022-10-13T10:01:49.755Z,97591.09
2022-10-13T10:03:53.185Z,97587.47
2022-10-13T10:05:58.191Z,97588.88
2022-10-13T10:08:12.842Z,97593.00
2022-10-13T10:10:28.023Z,97596.25
2022-10-13T10:12:34.794Z,97596.88
2022-10-13T10:14:39.180Z,97591.41
2022-10-13T10:16:46.070Z,97590.34
2022-10-13T10:18:58.435Z,97590.34
2022-10-13T10:21:09.350Z,97588.34
2022-10-13T10:23:20.223Z,97586.56
2022-10-13T10:25:33.173Z,97583.88
2022-10-13T10:27:43.907Z,97584.66
2022-10-13T10:29:52.370Z,97582.03
2022-10-13T10:32:04.084Z,97579.41
2022-10-13T10:34:29.286Z,97576.78
2022-10-13T10:36:41.456Z,97572.41
2022-10-13T10:38:51.587Z,97573.16
2022-10-13T10:41:04.629Z,97567.00
2022-10-13T10:43:36.429Z,97566.00
2022-10-13T10:45:40.793Z,97566.78
2022-10-13T10:47:47.041Z,97565.69
2022-10-13T10:49:51.858Z,97561.31
2022-10-13T10:51:55.477Z,97560.38
2022-10-13T10:54:15.273Z,97564.69
2022-10-13T10:56:23.957Z,97565.38
2022-10-13T10:58:38.625Z,97556.59
2022-10-13T11:00:49.452Z,97558.28
2022-10-13T11:03:00.975Z,97546.88
2022-10-13T11:05:06.376Z,97548.50
2022-10-13T11:07:53.996Z,97542.97
2022-10-13T11:10:18.860Z,97540.25
2022-10-13T11:12:24.337Z,97537.22
2022-10-13T11:14:31.906Z,97531.88
2022-10-13T11:16:35.716Z,97526.50
2022-10-13T11:19:28.720Z,97519.47
2022-10-13T11:22:19.474Z,97519.47
2022-10-13T11:24:50.449Z,97522.91
2022-10-13T11:26:54.452Z,97514.94
2022-10-13T11:28:57.101Z,97520.09
2022-10-13T11:31:29.776Z,97514.81
2022-10-13T11:33:54.512Z,97512.09
2022-10-13T11:35:57.164Z,97517.25
2022-10-13T11:38:17.980Z,97514.47
2022-10-13T11:40:25.996Z,97503.66
2022-10-13T11:42:53.318Z,97506.22
2022-10-13T11:45:02.612Z,97511.28
2022-10-13T11:47:17.396Z,97505.03
2022-10-13T11:49:52.281Z,97497.00
2022-10-13T11:52:20.385Z,97495.84
2022-10-13T11:54:32.550Z,97492.78
2022-10-13T11:56:39.704Z,97487.44
2022-10-13T11:58:43.675Z,97484.69
2022-10-13T12:00:55.326Z,97483.72
2022-10-13T12:02:57.942Z,97477.63
2022-10-13T12:05:05.043Z,97481.19
2022-10-13T12:07:10.766Z,97474.00
2022-10-13T12:09:19.192Z,97474.00
2022-10-13T12:11:26.401Z,97474.00
2022-10-13T12:13:31.485Z,97470.50
2022-10-13T12:15:36.361Z,97467.97
2022-10-13T12:17:39.445Z,97467.97
2022-10-13T12:19:42.053Z,97463.41
2022-10-13T12:21:51.210Z,97461.78
2022-10-13T12:24:08.617Z,97456.53
2022-10-13T12:26:17.378Z,97451.13
2022-10-13T12:28:20.842Z,97450.09
2022-10-13T12:30:26.082Z,97442.91
2022-10-13T12:32:31.323Z,97431.44
2022-10-13T12:34:36.312Z,97429.66
2022-10-13T12:36:38.936Z,97426.13
2022-10-13T12:38:48.251Z,97417.28
2022-10-13T12:40:53.436Z,97422.28
2022-10-13T12:42:56.927Z,97423.72
2022-10-13T12:45:01.117Z,97422.53
2022-10-13T12:47:04.064Z,97421.53
2022-10-13T12:49:07.392Z,97411.66
2022-10-13T12:51:19.590Z,97405.22
2022-10-13T12:53:27.146Z,97410.94
2022-10-13T12:55:32.713Z,97407.22
2022-10-13T12:57:39.025Z,97404.38
2022-10-13T12:59:43.807Z,97410.59
2022-10-13T13:01:55.169Z,97405.25
2022-10-13T13:04:00.279Z,97405.81
2022-10-13T13:06:12.309Z,97406.50
2022-10-13T13:08:25.343Z,97397.31
2022-10-13T13:10:28.050Z,97393.56
2022-10-13T13:12:32.089Z,97393.19
2022-10-13T13:14:40.212Z,97394.78
2022-10-13T13:16:42.861Z,97391.97
2022-10-13T13:18:46.040Z,97387.47
2022-10-13T13:20:48.689Z,97390.84
2022-10-13T13:22:51.867Z,97389.91
2022-10-13T13:24:54.683Z,97392.53
2022-10-13T13:26:57.327Z,97391.69
2022-10-13T13:29:01.250Z,97391.59
2022-10-13T13:31:03.840Z,97399.66
2022-10-13T13:33:06.487Z,97399.00
2022-10-13T13:35:10.207Z,97400.06
2022-10-13T13:37:15.657Z,97400.97
2022-10-13T13:39:18.375Z,97402.03
2022-10-13T13:41:21.955Z,97408.31
2022-10-13T13:43:24.761Z,97400.41
2022-10-13T13:45:28.656Z,97403.13
2022-10-13T13:47:31.230Z,97397.88
2022-10-13T13:49:33.813Z,97395.34
2022-10-13T13:51:36.568Z,97397.13
2022-10-13T13:53:39.154Z,97398.06
2022-10-13T13:55:44.434Z,97391.84
2022-10-13T13:57:46.996Z,97393.00
2022-10-13T13:59:49.682Z,97392.13
2022-10-13T14:01:53.696Z,97391.38
2022-10-13T14:03:56.343Z,97383.66
2022-10-13T14:05:58.936Z,97390.72
2022-10-13T14:08:02.282Z,97387.31
2022-10-13T14:10:06.268Z,97379.41
2022-10-13T14:12:08.971Z,97381.22
2022-10-13T14:14:11.673Z,97379.41
2022-10-13T14:16:18.597Z,97374.25
2022-10-13T14:18:22.508Z,97369.00
2022-10-13T14:20:25.160Z,97364.22
2022-10-13T14:22:27.767Z,97362.34
2022-10-13T14:24:30.349Z,97368.66
2022-10-13T14:26:32.970Z,97363.53
2022-10-13T14:28:35.611Z,97362.06
2022-10-13T14:30:40.283Z,97368.44
2022-10-13T14:32:43.260Z,97372.91
2022-10-13T14:34:47.192Z,97375.75
2022-10-13T14:36:49.813Z,97375.75
2022-10-13T14:38:52.627Z,97375.84
2022-10-13T14:40:59.487Z,97379.31
2022-10-13T14:43:02.075Z,97375.84
2022-10-13T14:45:06.510Z,97378.56
2022-10-13T14:47:09.139Z,97377.78
2022-10-13T14:49:12.144Z,97380.44
2022-10-13T14:51:16.844Z,97382.19
2022-10-13T14:53:19.480Z,97380.53
2022-10-13T14:55:22.039Z,97375.25
2022-10-13T14:57:24.699Z,97383.16
2022-10-13T14:59:27.440Z,97383.16
2022-10-13T15:01:30.379Z,97376.19
2022-10-13T15:03:33.543Z,97380.63
2022-10-13T15:05:36.209Z,97378.72
2022-10-13T15:07:41.206Z,97376.03
2022-10-13T15:09:52.819Z,97375.06
2022-10-13T15:12:07.205Z,97380.25
2022-10-13T15:14:10.710Z,97376.69
2022-10-13T15:16:18.193Z,97374.78
2022-10-13T15:18:22.880Z,97374.06
2022-10-13T15:20:29.153Z,97374.97
2022-10-13T15:22:31.920Z,97377.50
2022-10-13T15:24:35.808Z,97374.97
2022-10-13T15:26:38.418Z,97370.88
2022-10-13T15:28:43.382Z,97373.41
2022-10-13T15:30:46.633Z,97366.56
2022-10-13T15:32:50.155Z,97364.13
2022-10-13T15:34:52.725Z,97366.91
2022-10-13T15:36:55.250Z,97361.94
2022-10-13T15:38:57.804Z,97362.69
2022-10-13T15:41:02.577Z,97368.03
2022-10-13T15:43:06.290Z,97368.81
2022-10-13T15:45:11.158Z,97369.38
2022-10-13T15:47:17.167Z,97370.66
2022-10-13T15:49:20.240Z,97368.81
2022-10-13T15:51:26.756Z,97372.25
2022-10-13T15:53:30.856Z,97374.22
2022-10-13T15:55:34.417Z,97378.91
2022-10-13T15:57:38.495Z,97373.47
2022-10-13T15:59:41.221Z,97372.97
2022-10-13T16:01:43.822Z,97371.44
2022-10-13T16:03:46.405Z,97371.69
2022-10-13T16:05:49.043Z,97376.19
2022-10-13T16:07:51.645Z,97376.47
2022-10-13T16:09:54.253Z,97382.88
2022-10-13T16:11:56.804Z,97367.72
2022-10-13T16:14:00.729Z,97368.84
2022-10-13T16:16:05.521Z,97375.13
2022-10-13T16:18:08.658Z,97380.47
2022-10-13T16:20:12.358Z,97374.53
2022-10-13T16:22:15.189Z,97377.09
2022-10-13T16:24:17.764Z,97385.91
2022-10-13T16:26:20.715Z,97378.19
2022-10-13T16:28:23.354Z,97385.34
2022-10-13T16:30:27.889Z,97382.75
2022-10-13T16:32:30.742Z,97400.31
2022-10-13T16:34:33.354Z,97398.13
2022-10-13T16:36:35.890Z,97394.22
2022-10-13T16:38:38.527Z,97392.00
2022-10-13T16:40:41.381Z,97394.06
2022-10-13T16:42:44.907Z,97385.59
2022-10-13T16:44:47.603Z,97387.63
2022-10-13T16:46:53.792Z,97393.91
2022-10-13T16:48:56.370Z,97391.53
2022-10-13T16:51:00.695Z,97388.81
2022-10-13T16:53:03.247Z,97399.31
2022-10-13T16:55:07.338Z,97394.34
2022-10-13T16:57:10.321Z,97390.09
2022-10-13T16:59:13.040Z,97396.38
2022-10-13T17:01:15.692Z,97394.69
2022-10-13T17:03:19.835Z,97392.13
2022-10-13T17:05:22.429Z,97392.28
2022-10-13T17:07:25.065Z,97395.09
2022-10-13T17:09:27.777Z,97388.97
2022-10-13T17:11:32.327Z,97393.56
2022-10-13T17:13:36.945Z,97391.78
2022-10-13T17:15:39.625Z,97393.47
2022-10-13T17:17:42.201Z,97395.19
2022-10-13T17:19:46.097Z,97394.31
2022-10-13T17:21:48.648Z,97400.59
2022-10-13T17:23:51.443Z,97404.06
2022-10-13T17:25:56.017Z,97391.00
2022-10-13T17:27:58.579Z,97392.78
2022-10-13T17:30:01.143Z,97385.06
2022-10-13T17:32:03.700Z,97383.47
2022-10-13T17:34:06.632Z,97384.41
2022-10-13T17:36:14.899Z,97385.44
2022-10-13T17:38:17.427Z,97386.44
2022-10-13T17:40:20.098Z,97384.81
2022-10-13T17:42:22.905Z,97391.06
2022-10-13T17:44:25.560Z,97390.31
2022-10-13T17:46:38.929Z,97393.09
2022-10-13T17:48:42.453Z,97398.34
2022-10-13T17:50:45.102Z,97401.06
2022-10-13T17:52:49.175Z,97398.53
2022-10-13T17:54:51.729Z,97401.16
2022-10-13T17:56:56.094Z,97402.91
2022-10-13T17:58:59.675Z,97406.06
2022-10-13T18:01:13.556Z,97405.38
2022-10-13T18:03:16.457Z,97409.03
2022-10-13T18:05:19.173Z,97412.56
2022-10-13T18:07:21.934Z,97414.34
2022-10-13T18:09:26.341Z,97419.63
2022-10-13T18:11:29.075Z,97415.31
2022-10-13T18:13:32.115Z,97418.75
2022-10-13T18:15:36.818Z,97423.06
2022-10-13T18:17:39.434Z,97414.28
2022-10-13T18:19:43.074Z,97417.72
2022-10-13T18:21:45.631Z,97409.13
2022-10-13T18:23:48.177Z,97413.50
2022-10-13T18:25:52.170Z,97403.78
2022-10-13T18:27:54.797Z,97404.69
2022-10-13T18:29:59.012Z,97413.50
2022-10-13T18:32:01.687Z,97411.84
2022-10-13T18:34:06.598Z,97412.88
2022-10-13T18:36:14.942Z,97414.34
2022-10-13T18:38:19.941Z,97416.19
2022-10-13T18:40:22.605Z,97420.75
2022-10-13T18:42:28.028Z,97419.03
2022-10-13T18:44:30.589Z,97420.06
2022-10-13T18:46:33.455Z,97414.88
2022-10-13T18:48:36.585Z,97415.81
2022-10-13T18:50:39.632Z,97409.72
2022-10-13T18:52:42.193Z,97408.09
2022-10-13T18:54:45.509Z,97405.47
2022-10-13T18:56:48.098Z,97402.84
2022-10-13T18:58:56.962Z,97409.13
2022-10-13T19:01:02.490Z,97409.13
2022-10-13T19:03:05.359Z,97410.88
2022-10-13T19:05:08.411Z,97401.56
2022-10-13T19:07:10.965Z,97399.88
2022-10-13T19:09:15.403Z,97406.13
2022-10-13T19:11:20.342Z,97399.19
2022-10-13T19:13:22.926Z,97403.31
2022-10-13T19:15:27.012Z,97399.09
2022-10-13T19:17:29.750Z,97393.94
2022-10-13T19:19:32.365Z,97407.13
2022-10-13T19:21:34.972Z,97401.03
2022-10-13T19:23:37.626Z,97397.63
2022-10-13T19:25:42.160Z,97397.63
2022-10-13T19:27:44.866Z,97397.72
2022-10-13T19:29:47.523Z,97396.38
2022-10-13T19:31:51.442Z,97402.63
2022-10-13T19:33:54.899Z,97400.09
2022-10-13T19:35:57.520Z,97404.50
2022-10-13T19:38:00.090Z,97404.56
2022-10-13T19:40:03.419Z,97404.66
2022-10-13T19:42:06.141Z,97404.66
2022-10-13T19:44:08.736Z,97409.69
2022-10-13T19:46:11.410Z,97405.59
2022-10-13T19:48:15.750Z,97409.16
2022-10-13T19:50:18.502Z,97410.75
2022-10-13T19:52:22.524Z,97412.59
2022-10-13T19:54:31.465Z,97408.97
2022-10-13T19:56:36.483Z,97406.44
2022-10-13T19:58:39.053Z,97410.66
2022-10-13T20:00:41.699Z,97402.78
2022-10-13T20:02:44.290Z,97407.34
2022-10-13T20:04:48.205Z,97412.00
2022-10-13T20:06:52.041Z,97408.59
2022-10-13T20:08:54.613Z,97410.53
2022-10-13T20:10:57.211Z,97420.28
2022-10-13T20:12:59.833Z,97419.56
2022-10-13T20:15:02.414Z,97411.75
2022-10-13T20:17:05.078Z,97418.81
2022-10-13T20:19:08.184Z,97419.88
2022-10-13T20:21:14.767Z,97419.09
2022-10-13T20:23:17.406Z,97416.63
2022-10-13T20:25:20.433Z,97421.09
2022-10-13T20:27:23.834Z,97416.78
2022-10-13T20:29:26.672Z,97424.03
2022-10-13T20:31:29.459Z,97422.66
2022-10-13T20:33:32.786Z,97425.44
2022-10-13T20:35:35.369Z,97429.91
2022-10-13T20:37:39.361Z,97430.09
2022-10-13T20:39:42.024Z,97427.56
2022-10-13T20:41:44.749Z,97429.91
2022-10-13T20:43:48.573Z,97425.78
2022-10-13T20:46:00.466Z,97425.94
2022-10-13T20:48:02.902Z,97434.03
2022-10-13T20:50:08.463Z,97432.34
2022-10-13T20:52:11.089Z,97434.34
2022-10-13T20:54:16.559Z,97434.50
2022-10-13T20:56:22.060Z,97433.72
2022-10-13T20:58:25.470Z,97431.28
2022-10-13T21:00:28.174Z,97429.53
2022-10-13T21:02:30.814Z,97427.13
2022-10-13T21:04:33.480Z,97430.75
2022-10-13T21:06:36.397Z,97430.75
2022-10-13T21:08:39.014Z,97431.03
2022-10-13T21:10:42.944Z,97430.25
2022-10-13T21:12:45.592Z,97430.19
2022-10-13T21:14:48.167Z,97433.78
2022-10-13T21:16:53.292Z,97428.53
2022-10-13T21:18:57.673Z,97434.84
2022-10-13T21:21:03.551Z,97431.16
2022-10-13T21:23:07.120Z,97432.31
2022-10-13T21:25:10.374Z,97425.41
2022-10-13T21:27:14.333Z,97434.84
2022-10-13T21:29:17.032Z,97436.69
2022-10-13T21:31:21.418Z,97438.44
2022-10-13T21:33:24.070Z,97428.25
2022-10-13T21:35:26.871Z,97425.66
2022-10-13T21:37:29.466Z,97430.97
2022-10-13T21:39:32.042Z,97431.88
2022-10-13T21:41:34.699Z,97429.31
2022-10-13T21:43:38.859Z,97428.53
2022-10-13T21:45:41.452Z,97433.78
2022-10-13T21:47:44.026Z,97433.13
2022-10-13T21:49:46.594Z,97431.53
2022-10-13T21:51:49.386Z,97438.59
2022-10-13T21:53:53.927Z,97433.38
2022-10-13T21:55:56.519Z,97431.72
2022-10-13T21:58:05.157Z,97434.50
2022-10-13T22:00:10.956Z,97439.00
2022-10-13T22:02:13.733Z,97443.47
2022-10-13T22:04:16.293Z,97437.44
2022-10-13T22:06:20.051Z,97438.22
2022-10-13T22:08:37.335Z,97439.16
2022-10-13T22:10:40.683Z,97435.91
2022-10-13T22:12:43.273Z,97440.13
2022-10-13T22:14:46.111Z,97442.69
2022-10-13T22:16:52.085Z,97444.47
2022-10-13T22:18:56.327Z,97440.00
2022-10-13T22:21:01.939Z,97444.19
2022-10-13T22:23:04.547Z,97445.81
2022-10-13T22:25:08.735Z,97443.19
2022-10-13T22:27:11.377Z,97446.66
2022-10-13T22:29:17.944Z,97441.41
2022-10-13T22:31:20.755Z,97438.78
2022-10-13T22:33:24.730Z,97443.91
2022-10-13T22:35:27.335Z,97442.19
2022-10-13T22:37:29.958Z,97439.50
2022-10-13T22:39:32.701Z,97442.13
2022-10-13T22:41:35.888Z,97428.25
2022-10-13T22:43:38.711Z,97435.06
2022-10-13T22:45:50.712Z,97436.78
2022-10-13T22:47:53.685Z,97429.66
2022-10-13T22:49:57.869Z,97434.91
2022-10-13T22:52:00.545Z,97438.22
2022-10-13T22:54:04.023Z,97435.59
2022-10-13T22:56:07.399Z,97430.25
2022-10-13T22:58:10.317Z,97431.00
2022-10-13T23:00:13.977Z,97431.78
2022-10-13T23:02:16.614Z,97436.13
2022-10-13T23:04:19.170Z,97431.72
2022-10-13T23:06:24.845Z,97439.56
2022-10-13T23:08:27.574Z,97434.41
2022-10-13T23:10:30.147Z,97434.34
2022-10-13T23:12:35.155Z,97436.19
2022-10-13T23:14:37.820Z,97444.81
2022-10-13T23:16:40.437Z,97437.09
2022-10-13T23:18:43.376Z,97435.25
2022-10-13T23:20:45.931Z,97429.16
2022-10-13T23:22:49.891Z,97430.09
2022-10-13T23:24:52.539Z,97433.69
2022-10-13T23:27:00.217Z,97428.47
2022-10-13T23:29:03.389Z,97432.88
2022-10-13T23:31:07.899Z,97426.00
2022-10-13T23:33:10.458Z,97433.06
2022-10-13T23:35:13.133Z,97427.91
2022-10-13T23:37:15.738Z,97421.88
2022-10-13T23:39:19.672Z,97430.53
2022-10-13T23:41:22.312Z,97420.91
2022-10-13T23:43:24.936Z,97421.75
2022-10-13T23:45:27.505Z,97425.22
2022-10-13T23:47:30.073Z,97422.66
2022-10-13T23:49:32.651Z,97427.84
2022-10-13T23:51:35.252Z,97424.31
2022-10-13T23:53:38.543Z,97427.75
2022-10-13T23:55:42.454Z,97422.50
2022-10-13T23:57:45.035Z,97420.75
2022-10-13T23:59:47.820Z,97415.53
